sensor_id;sensor_type;location;lat;lon;timestamp;pressure;altitude;pressure_sealevel;temperature;humidity
68179;BME280;54998;42.656;23.382;2023-03-25T00:00:09;94580.56;;;7.97;64.07
68179;BME280;54998;42.656;23.382;2023-03-25T00:02:41;94562.28;;;8.01;63.40
68179;BME280;54998;42.656;23.382;2023-03-25T00:05:09;94574.16;;;8.12;63.16
68179;BME280;54998;42.656;23.382;2023-03-25T00:07:35;94575.09;;;8.11;63.35
68179;BME280;54998;42.656;23.382;2023-03-25T00:10:01;94578.31;;;8.03;63.63
68179;BME280;54998;42.656;23.382;2023-03-25T00:12:26;94570.91;;;8.00;63.58
68179;BME280;54998;42.656;23.382;2023-03-25T00:14:52;94578.56;;;8.00;64.17
68179;BME280;54998;42.656;23.382;2023-03-25T00:17:21;94575.34;;;7.98;64.49
68179;BME280;54998;42.656;23.382;2023-03-25T00:19:47;94576.25;;;7.97;64.53
68179;BME280;54998;42.656;23.382;2023-03-25T00:22:16;94568.59;;;7.97;64.45
68179;BME280;54998;42.656;23.382;2023-03-25T00:24:41;94568.88;;;7.94;64.86
68179;BME280;54998;42.656;23.382;2023-03-25T00:27:06;94555.94;;;7.86;65.12
68179;BME280;54998;42.656;23.382;2023-03-25T00:29:32;94559.13;;;7.78;65.07
68179;BME280;54998;42.656;23.382;2023-03-25T00:31:57;94556.84;;;7.66;65.25
68179;BME280;54998;42.656;23.382;2023-03-25T00:34:23;94551.56;;;7.57;65.54
68179;BME280;54998;42.656;23.382;2023-03-25T00:36:51;94551.00;;;7.54;65.64
68179;BME280;54998;42.656;23.382;2023-03-25T00:39:27;94545.88;;;7.44;65.96
68179;BME280;54998;42.656;23.382;2023-03-25T00:41:53;94550.97;;;7.44;66.26
68179;BME280;54998;42.656;23.382;2023-03-25T00:44:24;94554.22;;;7.46;66.57
68179;BME280;54998;42.656;23.382;2023-03-25T00:46:49;94557.94;;;7.42;66.51
68179;BME280;54998;42.656;23.382;2023-03-25T00:49:15;94556.06;;;7.44;66.59
68179;BME280;54998;42.656;23.382;2023-03-25T00:51:43;94543.94;;;7.36;66.66
68179;BME280;54998;42.656;23.382;2023-03-25T00:54:10;94550.38;;;7.31;66.92
68179;BME280;54998;42.656;23.382;2023-03-25T00:56:43;94540.91;;;7.22;66.87
68179;BME280;54998;42.656;23.382;2023-03-25T00:59:09;94548.66;;;7.10;66.86
68179;BME280;54998;42.656;23.382;2023-03-25T01:01:35;94548.72;;;6.99;67.71
68179;BME280;54998;42.656;23.382;2023-03-25T01:04:03;94547.47;;;6.93;67.73
68179;BME280;54998;42.656;23.382;2023-03-25T01:06:34;94548.13;;;6.86;68.75
68179;BME280;54998;42.656;23.382;2023-03-25T01:09:01;94536.53;;;6.82;68.00
68179;BME280;54998;42.656;23.382;2023-03-25T01:11:29;94541.53;;;6.83;67.88
68179;BME280;54998;42.656;23.382;2023-03-25T01:13:56;94541.66;;;6.82;67.77
68179;BME280;54998;42.656;23.382;2023-03-25T01:16:24;94535.84;;;6.79;67.42
68179;BME280;54998;42.656;23.382;2023-03-25T01:18:49;94533.38;;;6.68;67.96
68179;BME280;54998;42.656;23.382;2023-03-25T01:21:15;94527.66;;;6.55;68.17
68179;BME280;54998;42.656;23.382;2023-03-25T01:23:40;94531.50;;;6.49;69.32
68179;BME280;54998;42.656;23.382;2023-03-25T01:26:06;94531.28;;;6.41;68.87
68179;BME280;54998;42.656;23.382;2023-03-25T01:28:35;94527.00;;;6.42;69.53
68179;BME280;54998;42.656;23.382;2023-03-25T01:31:06;94518.91;;;6.36;69.78
68179;BME280;54998;42.656;23.382;2023-03-25T01:33:33;94512.69;;;6.50;69.42
68179;BME280;54998;42.656;23.382;2023-03-25T01:35:59;94510.84;;;6.52;69.07
68179;BME280;54998;42.656;23.382;2023-03-25T01:38:25;94503.44;;;6.49;68.88
68179;BME280;54998;42.656;23.382;2023-03-25T01:40:51;94502.81;;;6.57;68.53
68179;BME280;54998;42.656;23.382;2023-03-25T01:43:18;94501.78;;;6.60;67.68
68179;BME280;54998;42.656;23.382;2023-03-25T01:45:44;94502.31;;;6.63;67.10
68179;BME280;54998;42.656;23.382;2023-03-25T01:48:31;94497.53;;;6.70;67.14
68179;BME280;54998;42.656;23.382;2023-03-25T01:51:11;94491.81;;;6.56;66.94
68179;BME280;54998;42.656;23.382;2023-03-25T01:53:39;94497.78;;;6.46;67.88
68179;BME280;54998;42.656;23.382;2023-03-25T01:56:06;94502.88;;;6.46;67.96
68179;BME280;54998;42.656;23.382;2023-03-25T01:58:35;94501.00;;;6.48;67.72
68179;BME280;54998;42.656;23.382;2023-03-25T02:01:03;94497.28;;;6.52;67.02
68179;BME280;54998;42.656;23.382;2023-03-25T02:03:29;94502.28;;;6.53;67.07
68179;BME280;54998;42.656;23.382;2023-03-25T02:06:09;94502.44;;;6.41;67.74
68179;BME280;54998;42.656;23.382;2023-03-25T02:08:37;94488.81;;;6.30;68.00
68179;BME280;54998;42.656;23.382;2023-03-25T02:11:08;94492.69;;;6.25;68.33
68179;BME280;54998;42.656;23.382;2023-03-25T02:13:35;94489.81;;;6.18;67.99
68179;BME280;54998;42.656;23.382;2023-03-25T02:16:14;94489.63;;;6.10;69.02
68179;BME280;54998;42.656;23.382;2023-03-25T02:46:55;94481.09;;;5.88;69.17
68179;BME280;54998;42.656;23.382;2023-03-25T02:49:27;94479.09;;;6.03;68.27
68179;BME280;54998;42.656;23.382;2023-03-25T02:54:30;94477.09;;;6.18;67.46
68179;BME280;54998;42.656;23.382;2023-03-25T02:56:58;94474.88;;;6.13;67.45
68179;BME280;54998;42.656;23.382;2023-03-25T02:59:25;94471.53;;;6.13;67.68
68179;BME280;54998;42.656;23.382;2023-03-25T03:02:07;94463.13;;;6.01;67.99
68179;BME280;54998;42.656;23.382;2023-03-25T03:04:48;94466.97;;;5.95;68.14
68179;BME280;54998;42.656;23.382;2023-03-25T03:07:38;94469.09;;;5.79;68.23
68179;BME280;54998;42.656;23.382;2023-03-25T03:10:23;94470.25;;;5.64;69.04
68179;BME280;54998;42.656;23.382;2023-03-25T03:16:09;94467.63;;;5.54;69.48
68179;BME280;54998;42.656;23.382;2023-03-25T03:21:21;94462.44;;;5.55;69.77
68179;BME280;54998;42.656;23.382;2023-03-25T03:26:47;94461.63;;;5.44;69.70
68179;BME280;54998;42.656;23.382;2023-03-25T03:30:12;94475.03;;;5.46;70.14
68179;BME280;54998;42.656;23.382;2023-03-25T03:33:08;94464.88;;;5.46;70.45
68179;BME280;54998;42.656;23.382;2023-03-25T03:35:57;94475.03;;;5.46;70.74
68179;BME280;54998;42.656;23.382;2023-03-25T03:38:30;94465.94;;;5.32;70.62
68179;BME280;54998;42.656;23.382;2023-03-25T03:40:59;94473.09;;;5.27;71.40
68179;BME280;54998;42.656;23.382;2023-03-25T03:43:34;94464.31;;;5.20;71.40
68179;BME280;54998;42.656;23.382;2023-03-25T03:46:05;94473.91;;;5.16;72.07
68179;BME280;54998;42.656;23.382;2023-03-25T03:48:51;94471.97;;;5.08;71.96
68179;BME280;54998;42.656;23.382;2023-03-25T03:51:35;94479.81;;;5.17;71.99
68179;BME280;54998;42.656;23.382;2023-03-25T03:54:29;94477.84;;;5.20;71.75
68179;BME280;54998;42.656;23.382;2023-03-25T03:57:00;94470.44;;;5.17;71.32
68179;BME280;54998;42.656;23.382;2023-03-25T04:02:07;94477.03;;;5.20;71.56
68179;BME280;54998;42.656;23.382;2023-03-25T04:04:38;94471.94;;;5.20;71.96
68179;BME280;54998;42.656;23.382;2023-03-25T04:09:43;94476.59;;;5.03;72.24
68179;BME280;54998;42.656;23.382;2023-03-25T04:12:26;94469.88;;;5.02;72.48
68179;BME280;54998;42.656;23.382;2023-03-25T04:14:55;94473.78;;;5.18;72.83
68179;BME280;54998;42.656;23.382;2023-03-25T04:17:24;94478.75;;;5.30;72.16
68179;BME280;54998;42.656;23.382;2023-03-25T04:19:49;94472.88;;;5.30;72.07
68179;BME280;54998;42.656;23.382;2023-03-25T04:22:18;94473.22;;;5.25;72.60
68179;BME280;54998;42.656;23.382;2023-03-25T04:24:46;94474.47;;;5.31;73.14
68179;BME280;54998;42.656;23.382;2023-03-25T04:27:15;94475.50;;;5.40;72.77
68179;BME280;54998;42.656;23.382;2023-03-25T04:29:40;94476.00;;;5.33;72.15
68179;BME280;54998;42.656;23.382;2023-03-25T04:32:09;94477.03;;;5.20;72.23
68179;BME280;54998;42.656;23.382;2023-03-25T04:34:35;94470.69;;;5.14;72.21
68179;BME280;54998;42.656;23.382;2023-03-25T04:37:03;94471.50;;;5.14;73.03
68179;BME280;54998;42.656;23.382;2023-03-25T04:39:28;94476.13;;;5.21;72.86
68179;BME280;54998;42.656;23.382;2023-03-25T04:41:57;94478.44;;;5.24;72.82
68179;BME280;54998;42.656;23.382;2023-03-25T04:44:26;94485.50;;;5.31;72.36
68179;BME280;54998;42.656;23.382;2023-03-25T04:46:53;94484.66;;;5.42;72.33
68179;BME280;54998;42.656;23.382;2023-03-25T04:49:22;94490.53;;;5.54;71.19
68179;BME280;54998;42.656;23.382;2023-03-25T04:51:49;94486.72;;;5.60;71.31
68179;BME280;54998;42.656;23.382;2023-03-25T04:54:16;94470.75;;;5.58;71.17
68179;BME280;54998;42.656;23.382;2023-03-25T04:59:29;94486.97;;;6.32;70.43
68179;BME280;54998;42.656;23.382;2023-03-25T05:01:55;94494.94;;;7.52;65.48
68179;BME280;54998;42.656;23.382;2023-03-25T05:04:21;94497.59;;;8.69;61.43
68179;BME280;54998;42.656;23.382;2023-03-25T05:06:49;94484.22;;;10.05;56.88
68179;BME280;54998;42.656;23.382;2023-03-25T05:09:21;94475.75;;;11.11;52.60
68179;BME280;54998;42.656;23.382;2023-03-25T05:11:49;94482.63;;;11.87;51.07
68179;BME280;54998;42.656;23.382;2023-03-25T05:14:19;94480.97;;;12.53;48.63
68179;BME280;54998;42.656;23.382;2023-03-25T05:16:55;94479.50;;;13.64;45.67
68179;BME280;54998;42.656;23.382;2023-03-25T05:19:33;94482.44;;;14.99;42.99
68179;BME280;54998;42.656;23.382;2023-03-25T05:22:10;94471.59;;;16.58;39.31
68179;BME280;54998;42.656;23.382;2023-03-25T05:24:37;94479.72;;;17.61;36.96
68179;BME280;54998;42.656;23.382;2023-03-25T05:27:03;94483.47;;;18.00;35.91
68179;BME280;54998;42.656;23.382;2023-03-25T05:29:28;94476.25;;;17.54;35.71
68179;BME280;54998;42.656;23.382;2023-03-25T05:31:58;94480.19;;;18.46;34.67
68179;BME280;54998;42.656;23.382;2023-03-25T05:34:23;94478.72;;;19.63;32.50
68179;BME280;54998;42.656;23.382;2023-03-25T05:36:52;94470.91;;;20.22;31.74
68179;BME280;54998;42.656;23.382;2023-03-25T05:39:24;94473.66;;;20.27;31.21
68179;BME280;54998;42.656;23.382;2023-03-25T05:41:50;94461.44;;;20.91;30.12
68179;BME280;54998;42.656;23.382;2023-03-25T05:44:19;94480.00;;;22.00;28.95
68179;BME280;54998;42.656;23.382;2023-03-25T06:00:00;94478.97;;;23.63;25.63
68179;BME280;54998;42.656;23.382;2023-03-25T06:02:33;94475.44;;;23.81;25.40
68179;BME280;54998;42.656;23.382;2023-03-25T06:04:58;94469.94;;;22.76;26.82
68179;BME280;54998;42.656;23.382;2023-03-25T06:07:45;94474.41;;;24.22;25.09
68179;BME280;54998;42.656;23.382;2023-03-25T06:10:18;94472.53;;;23.30;26.04
68179;BME280;54998;42.656;23.382;2023-03-25T06:12:44;94465.94;;;23.91;25.58
68179;BME280;54998;42.656;23.382;2023-03-25T06:15:12;94482.78;;;24.36;25.30
68179;BME280;54998;42.656;23.382;2023-03-25T06:17:39;94474.00;;;24.88;24.15
68179;BME280;54998;42.656;23.382;2023-03-25T06:20:05;94467.56;;;22.74;26.87
68179;BME280;54998;42.656;23.382;2023-03-25T06:22:39;94465.97;;;20.45;29.98
68179;BME280;54998;42.656;23.382;2023-03-25T06:25:14;94470.41;;;18.68;33.15
68179;BME280;54998;42.656;23.382;2023-03-25T06:27:42;94469.31;;;19.62;31.81
68179;BME280;54998;42.656;23.382;2023-03-25T06:30:12;94475.47;;;21.59;28.37
68179;BME280;54998;42.656;23.382;2023-03-25T06:32:38;94465.56;;;23.24;26.02
68179;BME280;54998;42.656;23.382;2023-03-25T06:35:06;94469.22;;;24.10;24.82
68179;BME280;54998;42.656;23.382;2023-03-25T06:37:32;94474.28;;;22.94;26.81
68179;BME280;54998;42.656;23.382;2023-03-25T06:39:58;94468.97;;;25.03;24.33
68179;BME280;54998;42.656;23.382;2023-03-25T06:42:25;94477.91;;;24.56;24.17
68179;BME280;54998;42.656;23.382;2023-03-25T06:44:51;94468.78;;;23.26;25.80
68179;BME280;54998;42.656;23.382;2023-03-25T06:47:17;94467.28;;;24.63;24.93
68179;BME280;54998;42.656;23.382;2023-03-25T06:49:42;94466.31;;;23.83;25.72
68179;BME280;54998;42.656;23.382;2023-03-25T06:52:08;94483.59;;;24.36;25.09
68179;BME280;54998;42.656;23.382;2023-03-25T06:54:33;94487.31;;;23.36;27.13
68179;BME280;54998;42.656;23.382;2023-03-25T06:56:59;94483.16;;;23.87;25.98
68179;BME280;54998;42.656;23.382;2023-03-25T06:59:24;94484.75;;;22.82;27.01
68179;BME280;54998;42.656;23.382;2023-03-25T07:01:50;94479.44;;;23.01;26.78
68179;BME280;54998;42.656;23.382;2023-03-25T07:04:15;94490.56;;;22.96;28.15
68179;BME280;54998;42.656;23.382;2023-03-25T07:06:41;94495.78;;;25.05;25.33
68179;BME280;54998;42.656;23.382;2023-03-25T07:09:06;94484.78;;;24.57;24.89
68179;BME280;54998;42.656;23.382;2023-03-25T07:11:32;94481.97;;;24.07;26.65
68179;BME280;54998;42.656;23.382;2023-03-25T07:13:58;94484.22;;;24.27;26.04
68179;BME280;54998;42.656;23.382;2023-03-25T07:16:24;94483.31;;;23.69;26.90
68179;BME280;54998;42.656;23.382;2023-03-25T07:18:50;94476.59;;;23.61;26.75
68179;BME280;54998;42.656;23.382;2023-03-25T07:21:17;94468.47;;;24.55;25.78
68179;BME280;54998;42.656;23.382;2023-03-25T07:23:42;94472.75;;;24.04;26.14
68179;BME280;54998;42.656;23.382;2023-03-25T07:26:07;94477.00;;;24.22;26.03
68179;BME280;54998;42.656;23.382;2023-03-25T07:28:33;94475.41;;;24.95;24.82
68179;BME280;54998;42.656;23.382;2023-03-25T07:30:58;94478.41;;;25.55;24.48
68179;BME280;54998;42.656;23.382;2023-03-25T07:33:24;94480.78;;;26.44;22.94
68179;BME280;54998;42.656;23.382;2023-03-25T07:35:49;94473.78;;;26.06;23.29
68179;BME280;54998;42.656;23.382;2023-03-25T07:38:14;94476.84;;;24.86;25.27
68179;BME280;54998;42.656;23.382;2023-03-25T07:40:40;94471.19;;;26.33;23.61
68179;BME280;54998;42.656;23.382;2023-03-25T07:43:05;94469.28;;;28.00;21.22
68179;BME280;54998;42.656;23.382;2023-03-25T07:45:31;94467.56;;;27.74;21.94
68179;BME280;54998;42.656;23.382;2023-03-25T07:47:59;94467.78;;;26.87;22.64
68179;BME280;54998;42.656;23.382;2023-03-25T07:50:25;94467.03;;;27.72;21.66
68179;BME280;54998;42.656;23.382;2023-03-25T07:52:50;94470.63;;;24.75;24.68
68179;BME280;54998;42.656;23.382;2023-03-25T07:55:15;94467.94;;;26.48;23.63
68179;BME280;54998;42.656;23.382;2023-03-25T07:57:41;94453.59;;;26.93;22.36
68179;BME280;54998;42.656;23.382;2023-03-25T08:00:07;94453.59;;;26.61;23.32
68179;BME280;54998;42.656;23.382;2023-03-25T08:02:33;94442.53;;;27.29;22.39
68179;BME280;54998;42.656;23.382;2023-03-25T08:04:59;94455.06;;;27.11;22.42
68179;BME280;54998;42.656;23.382;2023-03-25T08:07:24;94447.44;;;26.82;22.74
68179;BME280;54998;42.656;23.382;2023-03-25T08:09:49;94448.34;;;26.39;23.25
68179;BME280;54998;42.656;23.382;2023-03-25T08:12:15;94451.00;;;25.90;23.81
68179;BME280;54998;42.656;23.382;2023-03-25T08:14:40;94446.69;;;26.55;22.73
68179;BME280;54998;42.656;23.382;2023-03-25T08:17:06;94438.31;;;27.28;22.50
68179;BME280;54998;42.656;23.382;2023-03-25T08:19:32;94436.91;;;27.62;21.94
68179;BME280;54998;42.656;23.382;2023-03-25T08:21:57;94425.91;;;28.70;20.92
68179;BME280;54998;42.656;23.382;2023-03-25T08:24:22;94434.50;;;28.09;20.91
68179;BME280;54998;42.656;23.382;2023-03-25T08:26:51;94437.94;;;28.30;21.22
68179;BME280;54998;42.656;23.382;2023-03-25T08:29:19;94438.28;;;26.85;22.33
68179;BME280;54998;42.656;23.382;2023-03-25T08:31:44;94428.50;;;27.18;22.44
68179;BME280;54998;42.656;23.382;2023-03-25T08:34:11;94429.06;;;23.81;25.97
68179;BME280;54998;42.656;23.382;2023-03-25T08:36:37;94433.16;;;23.89;26.70
68179;BME280;54998;42.656;23.382;2023-03-25T08:39:04;94426.59;;;25.72;24.19
68179;BME280;54998;42.656;23.382;2023-03-25T08:41:34;94422.94;;;28.40;20.69
68179;BME280;54998;42.656;23.382;2023-03-25T08:43:59;94420.88;;;28.68;20.16
68179;BME280;54998;42.656;23.382;2023-03-25T08:46:24;94403.03;;;29.61;19.64
68179;BME280;54998;42.656;23.382;2023-03-25T08:48:50;94410.00;;;27.55;21.41
68179;BME280;54998;42.656;23.382;2023-03-25T08:51:15;94407.56;;;27.01;22.43
68179;BME280;54998;42.656;23.382;2023-03-25T08:53:41;94403.38;;;28.16;21.28
68179;BME280;54998;42.656;23.382;2023-03-25T08:56:06;94402.88;;;30.46;19.38
68179;BME280;54998;42.656;23.382;2023-03-25T08:58:32;94388.38;;;28.78;20.63
68179;BME280;54998;42.656;23.382;2023-03-25T09:00:57;94396.84;;;28.75;20.62
68179;BME280;54998;42.656;23.382;2023-03-25T09:03:22;94394.59;;;30.14;19.00
68179;BME280;54998;42.656;23.382;2023-03-25T09:05:48;94387.78;;;30.02;19.28
68179;BME280;54998;42.656;23.382;2023-03-25T09:08:13;94395.91;;;27.24;22.35
68179;BME280;54998;42.656;23.382;2023-03-25T09:10:39;94387.91;;;25.24;24.63
68179;BME280;54998;42.656;23.382;2023-03-25T09:13:05;94383.59;;;28.23;21.76
68179;BME280;54998;42.656;23.382;2023-03-25T09:15:30;94378.59;;;29.09;20.87
68179;BME280;54998;42.656;23.382;2023-03-25T09:17:56;94378.00;;;31.59;18.89
68179;BME280;54998;42.656;23.382;2023-03-25T09:20:21;94375.88;;;30.79;18.96
68179;BME280;54998;42.656;23.382;2023-03-25T09:22:47;94376.84;;;25.88;24.22
68179;BME280;54998;42.656;23.382;2023-03-25T09:25:12;94363.88;;;26.03;24.94
68179;BME280;54998;42.656;23.382;2023-03-25T09:27:38;94366.59;;;27.83;22.35
68179;BME280;54998;42.656;23.382;2023-03-25T09:30:04;94360.66;;;29.86;20.40
68179;BME280;54998;42.656;23.382;2023-03-25T09:32:29;94359.31;;;28.47;22.06
68179;BME280;54998;42.656;23.382;2023-03-25T09:34:55;94355.97;;;27.53;22.10
68179;BME280;54998;42.656;23.382;2023-03-25T09:37:20;94358.06;;;24.11;25.50
68179;BME280;54998;42.656;23.382;2023-03-25T09:39:46;94357.16;;;23.48;26.75
68179;BME280;54998;42.656;23.382;2023-03-25T09:47:56;94344.28;;;28.83;21.40
68179;BME280;54998;42.656;23.382;2023-03-25T09:50:24;94345.91;;;29.65;20.63
68179;BME280;54998;42.656;23.382;2023-03-25T09:55:43;94338.97;;;29.19;20.05
68179;BME280;54998;42.656;23.382;2023-03-25T09:58:35;94331.88;;;28.89;21.13
68179;BME280;54998;42.656;23.382;2023-03-25T10:01:14;94330.38;;;25.22;24.84
68179;BME280;54998;42.656;23.382;2023-03-25T10:09:43;94316.75;;;25.47;25.09
68179;BME280;54998;42.656;23.382;2023-03-25T10:20:17;94316.63;;;22.98;27.27
68179;BME280;54998;42.656;23.382;2023-03-25T10:25:31;94301.38;;;23.48;26.97
68179;BME280;54998;42.656;23.382;2023-03-25T10:27:59;94288.41;;;24.83;25.22
68179;BME280;54998;42.656;23.382;2023-03-25T10:30:31;94284.41;;;24.80;24.39
68179;BME280;54998;42.656;23.382;2023-03-25T10:33:02;94273.13;;;24.80;24.25
68179;BME280;54998;42.656;23.382;2023-03-25T10:35:35;94276.88;;;24.67;23.59
68179;BME280;54998;42.656;23.382;2023-03-25T10:40:41;94269.72;;;26.00;21.97
68179;BME280;54998;42.656;23.382;2023-03-25T10:43:26;94268.63;;;25.69;22.86
68179;BME280;54998;42.656;23.382;2023-03-25T10:48:49;94256.06;;;27.41;19.93
68179;BME280;54998;42.656;23.382;2023-03-25T10:51:18;94255.88;;;26.95;20.05
68179;BME280;54998;42.656;23.382;2023-03-25T10:53:49;94259.03;;;27.70;19.76
68179;BME280;54998;42.656;23.382;2023-03-25T10:56:29;94260.66;;;27.92;19.06
68179;BME280;54998;42.656;23.382;2023-03-25T10:58:57;94259.03;;;28.47;19.07
68179;BME280;54998;42.656;23.382;2023-03-25T11:01:35;94252.47;;;29.85;17.61
68179;BME280;54998;42.656;23.382;2023-03-25T11:04:04;94250.84;;;26.93;20.27
68179;BME280;54998;42.656;23.382;2023-03-25T11:06:33;94241.34;;;25.48;21.94
68179;BME280;54998;42.656;23.382;2023-03-25T11:11:40;94240.28;;;24.77;23.05
68179;BME280;54998;42.656;23.382;2023-03-25T11:14:06;94231.88;;;25.19;22.88
68179;BME280;54998;42.656;23.382;2023-03-25T11:16:33;94232.75;;;23.91;24.38
68179;BME280;54998;42.656;23.382;2023-03-25T11:19:00;94222.97;;;25.48;22.72
68179;BME280;54998;42.656;23.382;2023-03-25T11:21:31;94226.28;;;26.30;21.50
68179;BME280;54998;42.656;23.382;2023-03-25T11:23:57;94218.91;;;26.69;21.81
68179;BME280;54998;42.656;23.382;2023-03-25T11:26:35;94208.44;;;25.67;23.02
68179;BME280;54998;42.656;23.382;2023-03-25T11:29:06;94210.53;;;25.97;22.43
68179;BME280;54998;42.656;23.382;2023-03-25T11:31:34;94208.88;;;25.59;23.51
68179;BME280;54998;42.656;23.382;2023-03-25T11:34:19;94209.56;;;26.99;21.82
68179;BME280;54998;42.656;23.382;2023-03-25T11:41:48;94187.81;;;26.13;22.66
68179;BME280;54998;42.656;23.382;2023-03-25T11:44:25;94181.19;;;26.53;21.83
68179;BME280;54998;42.656;23.382;2023-03-25T11:46:58;94179.28;;;26.43;21.96
68179;BME280;54998;42.656;23.382;2023-03-25T11:49:25;94174.91;;;25.47;23.35
68179;BME280;54998;42.656;23.382;2023-03-25T11:52:03;94179.50;;;25.35;23.30
68179;BME280;54998;42.656;23.382;2023-03-25T11:54:29;94167.88;;;26.22;22.29
68179;BME280;54998;42.656;23.382;2023-03-25T11:56:57;94163.06;;;27.35;20.61
68179;BME280;54998;42.656;23.382;2023-03-25T11:59:36;94148.97;;;28.68;19.27
68179;BME280;54998;42.656;23.382;2023-03-25T12:02:25;94160.97;;;28.14;20.44
68179;BME280;54998;42.656;23.382;2023-03-25T12:07:47;94144.28;;;28.39;20.74
68179;BME280;54998;42.656;23.382;2023-03-25T12:10:18;94149.47;;;29.99;18.76
68179;BME280;54998;42.656;23.382;2023-03-25T12:13:01;94142.53;;;28.90;19.24
68179;BME280;54998;42.656;23.382;2023-03-25T12:16:00;94143.75;;;26.36;21.26
68179;BME280;54998;42.656;23.382;2023-03-25T12:29:55;94144.69;;;22.82;25.54
68179;BME280;54998;42.656;23.382;2023-03-25T12:37:57;94144.03;;;21.99;26.50
68179;BME280;54998;42.656;23.382;2023-03-25T12:43:13;94150.53;;;21.01;27.75
68179;BME280;54998;42.656;23.382;2023-03-25T12:46:05;94146.16;;;21.55;27.56
68179;BME280;54998;42.656;23.382;2023-03-25T12:51:32;94146.75;;;20.85;28.14
68179;BME280;54998;42.656;23.382;2023-03-25T12:54:37;94142.06;;;21.59;27.27
68179;BME280;54998;42.656;23.382;2023-03-25T12:59:59;94145.59;;;21.77;27.04
68179;BME280;54998;42.656;23.382;2023-03-25T13:02:33;94148.41;;;21.09;27.68
68179;BME280;54998;42.656;23.382;2023-03-25T13:05:21;94146.28;;;21.18;27.13
68179;BME280;54998;42.656;23.382;2023-03-25T13:08:06;94146.28;;;21.18;27.60
68179;BME280;54998;42.656;23.382;2023-03-25T13:10:36;94140.56;;;20.67;28.21
68179;BME280;54998;42.656;23.382;2023-03-25T13:13:13;94144.09;;;20.55;28.61
68179;BME280;54998;42.656;23.382;2023-03-25T13:15:48;94144.94;;;20.48;29.09
68179;BME280;54998;42.656;23.382;2023-03-25T13:18:21;94142.56;;;19.92;29.08
68179;BME280;54998;42.656;23.382;2023-03-25T13:21:15;94145.31;;;20.34;28.51
68179;BME280;54998;42.656;23.382;2023-03-25T13:23:42;94140.69;;;20.36;28.60
68179;BME280;54998;42.656;23.382;2023-03-25T13:26:17;94131.75;;;19.69;29.78
68179;BME280;54998;42.656;23.382;2023-03-25T13:28:52;94141.38;;;19.62;30.29
68179;BME280;54998;42.656;23.382;2023-03-25T13:31:27;94137.94;;;19.12;30.88
68179;BME280;54998;42.656;23.382;2023-03-25T13:36:49;94134.09;;;18.76;32.72
68179;BME280;54998;42.656;23.382;2023-03-25T13:39:22;94145.34;;;18.70;32.83
68179;BME280;54998;42.656;23.382;2023-03-25T13:41:55;94158.94;;;18.65;32.84
68179;BME280;54998;42.656;23.382;2023-03-25T13:44:29;94143.94;;;18.67;32.63
68179;BME280;54998;42.656;23.382;2023-03-25T13:52:29;94151.75;;;18.80;31.99
68179;BME280;54998;42.656;23.382;2023-03-25T13:55:17;94157.13;;;18.20;32.80
68179;BME280;54998;42.656;23.382;2023-03-25T14:06:45;94217.41;;;17.29;37.80
68179;BME280;54998;42.656;23.382;2023-03-25T14:12:24;94203.63;;;16.26;45.31
68179;BME280;54998;42.656;23.382;2023-03-25T14:15:11;94208.75;;;16.12;44.70
68179;BME280;54998;42.656;23.382;2023-03-25T14:17:39;94202.06;;;15.96;46.20
68179;BME280;54998;42.656;23.382;2023-03-25T14:20:05;94204.44;;;15.98;47.04
68179;BME280;54998;42.656;23.382;2023-03-25T14:22:37;94219.25;;;16.39;46.14
68179;BME280;54998;42.656;23.382;2023-03-25T14:25:05;94204.88;;;16.36;47.10
68179;BME280;54998;42.656;23.382;2023-03-25T14:27:38;94214.19;;;15.96;50.07
68179;BME280;54998;42.656;23.382;2023-03-25T14:30:07;94198.66;;;15.96;49.48
68179;BME280;54998;42.656;23.382;2023-03-25T14:32:42;94201.53;;;16.08;50.21
68179;BME280;54998;42.656;23.382;2023-03-25T14:43:02;94199.66;;;15.95;53.04
68179;BME280;54998;42.656;23.382;2023-03-25T14:47:59;94186.50;;;15.40;52.81
68179;BME280;54998;42.656;23.382;2023-03-25T14:52:54;94146.06;;;15.11;56.73
68179;BME280;54998;42.656;23.382;2023-03-25T14:55:30;94129.25;;;14.78;56.64
68179;BME280;54998;42.656;23.382;2023-03-25T14:58:00;94121.81;;;14.69;56.16
68179;BME280;54998;42.656;23.382;2023-03-25T15:00:39;94119.97;;;14.63;57.19
68179;BME280;54998;42.656;23.382;2023-03-25T15:03:13;94125.06;;;14.41;57.93
68179;BME280;54998;42.656;23.382;2023-03-25T15:05:42;94132.25;;;14.61;58.62
68179;BME280;54998;42.656;23.382;2023-03-25T15:10:37;94134.81;;;15.18;57.42
68179;BME280;54998;42.656;23.382;2023-03-25T15:13:06;94136.72;;;15.59;56.78
68179;BME280;54998;42.656;23.382;2023-03-25T15:21:03;94126.22;;;15.96;55.72
68179;BME280;54998;42.656;23.382;2023-03-25T15:25:59;94131.31;;;15.33;54.97
68179;BME280;54998;42.656;23.382;2023-03-25T15:28:33;94128.47;;;15.21;54.64
68179;BME280;54998;42.656;23.382;2023-03-25T15:47:52;94110.00;;;14.60;55.95
68179;BME280;54998;42.656;23.382;2023-03-25T15:50:30;94121.59;;;14.34;56.49
68179;BME280;54998;42.656;23.382;2023-03-25T15:58:42;94108.56;;;14.21;56.23
68179;BME280;54998;42.656;23.382;2023-03-25T16:01:28;94107.00;;;14.26;55.46
68179;BME280;54998;42.656;23.382;2023-03-25T16:04:09;94107.66;;;14.13;56.07
68179;BME280;54998;42.656;23.382;2023-03-25T16:06:41;94109.59;;;14.11;56.14
68179;BME280;54998;42.656;23.382;2023-03-25T16:09:19;94114.16;;;14.09;56.92
68179;BME280;54998;42.656;23.382;2023-03-25T16:11:45;94115.75;;;14.10;56.30
68179;BME280;54998;42.656;23.382;2023-03-25T16:14:17;94116.28;;;14.21;55.05
68179;BME280;54998;42.656;23.382;2023-03-25T16:16:46;94112.81;;;14.13;55.35
68179;BME280;54998;42.656;23.382;2023-03-25T16:19:20;94107.03;;;14.11;55.41
68179;BME280;54998;42.656;23.382;2023-03-25T16:21:49;94111.31;;;14.19;55.37